Aérodrome :
LOGIN :

S'inscrire | Disclaimer

   EN    FR    IT 

 










Légende :    VFR   VFR Marginal   IFR   IFR Intensif   IFR Très Intensif
Visi : 
Plafond : 
>= 8 km
>= 3000ft
5 à 8 km
1000 à 3000 ft
1500m à 5 km
500 à 1000 ft
800 à 1500m
200 à 500 ft
< 800m
< 200 ft
Symboles :   Orages  Brouillard  Fortes neiges  Fortes précipitations  Vent > 20 kt
SIGMETs :   Divers  Orages  Givrage  Turbulence  Onde Orograph.  Cendres Volcan.







- Altitude de l'aérodrome : 659 ft
- Code IATA : LYN
- Voir les cartes d'approche


LFLY - Lyon Bron

DERNIER METAR :
  • 221200Z AUTO 35010KT 330V060 9000 FEW026 OVC052 02/M06 Q1009 NOSIG

METARs EXPIRÉS :
  • 221130Z AUTO 34011KT 320V040 9000 OVC052 01/M05 Q1010 NOSIG
  • 221100Z AUTO 35012KT 320V070 9000 FEW025 OVC052 01/M05 Q1010 NOSIG
  • 221030Z AUTO 34013KT 330V040 8000 OVC052 01/M05 Q1009 NOSIG
  • 221000Z AUTO 35012KT 330V040 9000 OVC052 01/M05 Q1009 NOSIG
  • 220930Z AUTO 35011KT 320V020 9000 OVC052 01/M05 Q1009 NOSIG

TAF TAF LFLY
Valide du 22 à 12h jusqu'au 23 à 12h UTC


221100Z 2212/2312 35010KT 8000 SCT020 BKN050
PROB30
TEMPO 2212/2224 NSC
ATIS : +33 4 72 15 87 96
Pas de NOTAMs connus pour ce terrain.
1 SIGMET publié pour la FIR Marseille (LFMM) :
 
Turbulence forte
LFMM SIGMET 6 VALID 221100/221500 LFPW
LFMM MARSEILLE FIR/UIR SEV TURB FCST W OF LINE N4200 E00415 - N4345 E00245 SFC/FL050 STNR WKN=



MET'MAP, la Météo Aéronautique d'un coup d'oeil ! - Copyright ORBIFLY Décembre 2007 - Disclaimer

ORBIFLY MET'MAP TEAM :

Programmation & Développement : Alexandra Zaïnal
Conception & Développement : Baudouin d'Aumeries
Co-Programmation & Développement : Marc-Olivier Méhu
Soutien technique & logistique : Manuel Goepfert

Contact : metmap@orbifly.com




SOURCES & CREDITS :

   NOAA